DLH590 EDDF-HKJK
Flight info
| Callsign | DLH590 |
|---|---|
| Flight time | N/A |
| Altitude | 37000 |
| Route | CINDY8S CINDY Z74 LAMPU DCT NOMBO Y161 MAH DCT VAVOR DCT RADIZ DCT NIPEL DCT ELTIB DCT GLOMY DCT PETAK DCT DIMIS DCT IPTES UL604 TRL DCT SALUN N705 BOPIX N710 TAKRI P751 LXR M999 ELELI/N0486F390 M999 JDW G650 RASKA/N0492F380 G650 KONET M308 AVUNI/N0487F400 M308 GETOL UM308 RUDOL/N0489F390 UM308 LOTAS LOTAS3A |
| Aircraft | A359/H-SDE2E3GHIJ3J4J5LM1ORWXY/LB1D1 |
Departure
| Time | N/A |
|---|---|
| Airport | Frankfurt Main Airport (EDDF) |
Arrival
| Time | 2026-05-06 20:07 |
|---|---|
| Airport | Jomo Kenyatta International Airport (HKJK) |
| Time | Latitude | Longitude | Altitude | Speed | Heading |
|---|---|---|---|---|---|
| 2026-05-06 17:57 | 17.92270 | 38.99615 | 38853 ft | 473 kts | 187° |
| 2026-05-06 17:57 | 17.79090 | 38.99141 | 38848 ft | 473 kts | 187° |
| 2026-05-06 17:58 | 17.65876 | 38.98665 | 38853 ft | 475 kts | 187° |
| 2026-05-06 17:58 | 17.52648 | 38.98191 | 38848 ft | 476 kts | 187° |
| 2026-05-06 17:59 | 17.39386 | 38.97720 | 38856 ft | 477 kts | 187° |
| 2026-05-06 17:59 | 17.26127 | 38.97231 | 38853 ft | 477 kts | 187° |
| 2026-05-06 18:00 | 17.12936 | 38.96747 | 38865 ft | 478 kts | 186° |
| 2026-05-06 18:00 | 16.99649 | 38.96264 | 38867 ft | 478 kts | 186° |
| 2026-05-06 18:01 | 16.86362 | 38.95780 | 38867 ft | 478 kts | 186° |
| 2026-05-06 18:01 | 16.73077 | 38.95297 | 38865 ft | 478 kts | 186° |
| 2026-05-06 18:02 | 16.59753 | 38.94813 | 38876 ft | 480 kts | 186° |
| 2026-05-06 18:02 | 16.46398 | 38.94330 | 38873 ft | 480 kts | 186° |
| 2026-05-06 18:03 | 16.33006 | 38.93845 | 38882 ft | 481 kts | 186° |
| 2026-05-06 18:03 | 16.19636 | 38.93362 | 38900 ft | 481 kts | 186° |
| 2026-05-06 18:04 | 16.06221 | 38.92876 | 38913 ft | 483 kts | 186° |
| 2026-05-06 18:04 | 15.92880 | 38.92397 | 38916 ft | 483 kts | 186° |
| 2026-05-06 18:05 | 15.79399 | 38.91908 | 38922 ft | 485 kts | 185° |
| 2026-05-06 18:05 | 15.65902 | 38.91425 | 38950 ft | 486 kts | 185° |
| 2026-05-06 18:06 | 15.52360 | 38.90939 | 38957 ft | 488 kts | 185° |
| 2026-05-06 18:06 | 15.38759 | 38.90451 | 38984 ft | 488 kts | 185° |
| 2026-05-06 18:07 | 15.25183 | 38.89999 | 38994 ft | 489 kts | 183° |
| 2026-05-06 18:07 | 15.11636 | 38.90039 | 38995 ft | 489 kts | 182° |
| 2026-05-06 18:08 | 14.98009 | 38.90053 | 38998 ft | 490 kts | 182° |
| 2026-05-06 18:08 | 14.84374 | 38.90036 | 38998 ft | 490 kts | 182° |
| 2026-05-06 18:09 | 14.70740 | 38.90021 | 38994 ft | 490 kts | 182° |
| 2026-05-06 18:09 | 14.57120 | 38.90007 | 39002 ft | 489 kts | 182° |
| 2026-05-06 18:10 | 14.43490 | 38.89962 | 39006 ft | 489 kts | 182° |
| 2026-05-06 18:10 | 14.29885 | 38.89784 | 39000 ft | 489 kts | 182° |
| 2026-05-06 18:11 | 14.16277 | 38.89633 | 39004 ft | 489 kts | 182° |
| 2026-05-06 18:11 | 14.02666 | 38.89486 | 38996 ft | 489 kts | 182° |
| 2026-05-06 18:12 | 13.89121 | 38.89242 | 38996 ft | 491 kts | 182° |
| 2026-05-06 18:12 | 13.75484 | 38.88984 | 38970 ft | 490 kts | 182° |
| 2026-05-06 18:13 | 13.61841 | 38.88740 | 38962 ft | 490 kts | 182° |
| 2026-05-06 18:13 | 13.48196 | 38.88494 | 38952 ft | 490 kts | 182° |
| 2026-05-06 18:14 | 13.34548 | 38.88248 | 38943 ft | 489 kts | 182° |
| 2026-05-06 18:14 | 13.20949 | 38.88005 | 38922 ft | 489 kts | 182° |
| 2026-05-06 18:15 | 13.07344 | 38.87760 | 38917 ft | 488 kts | 182° |
| 2026-05-06 18:15 | 12.93749 | 38.87517 | 38918 ft | 489 kts | 182° |
| 2026-05-06 18:16 | 12.80254 | 38.87167 | 38929 ft | 488 kts | 184° |
| 2026-05-06 18:16 | 12.66692 | 38.86766 | 38944 ft | 488 kts | 183° |
| 2026-05-06 18:17 | 12.53123 | 38.86387 | 38962 ft | 489 kts | 183° |
| 2026-05-06 18:17 | 12.39488 | 38.86006 | 38985 ft | 490 kts | 183° |
| 2026-05-06 18:18 | 12.25861 | 38.85632 | 38985 ft | 490 kts | 183° |
| 2026-05-06 18:18 | 12.12276 | 38.85252 | 39000 ft | 491 kts | 183° |
| 2026-05-06 18:19 | 11.98621 | 38.84874 | 39013 ft | 491 kts | 183° |
| 2026-05-06 18:19 | 11.85751 | 38.84518 | 39010 ft | 491 kts | 183° |
| 2026-05-06 18:20 | 11.78923 | 38.84330 | 39023 ft | 491 kts | 183° |
| 2026-05-06 18:20 | 11.72090 | 38.84142 | 39034 ft | 491 kts | 184° |
| 2026-05-06 18:21 | 11.65270 | 38.83955 | 39033 ft | 490 kts | 182° |
| 2026-05-06 18:21 | 11.58446 | 38.83766 | 39033 ft | 490 kts | 182° |
| 2026-05-06 18:22 | 11.51632 | 38.83579 | 39039 ft | 490 kts | 183° |
| 2026-05-06 18:22 | 11.44856 | 38.83391 | 39042 ft | 490 kts | 183° |
| 2026-05-06 18:23 | 11.38040 | 38.83205 | 39045 ft | 489 kts | 183° |
| 2026-05-06 18:23 | 11.31227 | 38.83016 | 39045 ft | 490 kts | 183° |
| 2026-05-06 18:24 | 11.24402 | 38.82830 | 39046 ft | 490 kts | 184° |
| 2026-05-06 18:24 | 11.17591 | 38.82642 | 39050 ft | 490 kts | 182° |
| 2026-05-06 18:25 | 11.10777 | 38.82453 | 39063 ft | 490 kts | 184° |
| 2026-05-06 18:25 | 11.03996 | 38.82267 | 39084 ft | 490 kts | 182° |
| 2026-05-06 18:26 | 10.97170 | 38.82080 | 39083 ft | 490 kts | 184° |
| 2026-05-06 18:26 | 10.90348 | 38.81893 | 39091 ft | 490 kts | 183° |
| 2026-05-06 18:27 | 10.83562 | 38.81706 | 39088 ft | 491 kts | 182° |
| 2026-05-06 18:27 | 10.76722 | 38.81520 | 39092 ft | 491 kts | 182° |
| 2026-05-06 18:28 | 10.69884 | 38.81337 | 39090 ft | 491 kts | 182° |
| 2026-05-06 18:28 | 10.63049 | 38.81147 | 39090 ft | 491 kts | 182° |
| 2026-05-06 18:29 | 10.56210 | 38.80958 | 39083 ft | 492 kts | 182° |
| 2026-05-06 18:29 | 10.49412 | 38.80773 | 39086 ft | 492 kts | 183° |
| 2026-05-06 18:30 | 10.42555 | 38.80584 | 39079 ft | 492 kts | 182° |
| 2026-05-06 18:30 | 10.35711 | 38.80397 | 39087 ft | 492 kts | 183° |
| 2026-05-06 18:31 | 10.28860 | 38.80210 | 39083 ft | 492 kts | 182° |
| 2026-05-06 18:31 | 10.22015 | 38.80023 | 39093 ft | 492 kts | 183° |
| 2026-05-06 18:32 | 10.15167 | 38.79836 | 39091 ft | 492 kts | 182° |
| 2026-05-06 18:32 | 10.08366 | 38.79650 | 39116 ft | 492 kts | 182° |
| 2026-05-06 18:33 | 10.01523 | 38.79465 | 39147 ft | 492 kts | 183° |
| 2026-05-06 18:33 | 9.94671 | 38.79277 | 39147 ft | 493 kts | 183° |
| 2026-05-06 18:34 | 9.87811 | 38.79090 | 39177 ft | 493 kts | 182° |
| 2026-05-06 18:34 | 9.80939 | 38.78903 | 39175 ft | 494 kts | 182° |
| 2026-05-06 18:35 | 9.74071 | 38.78717 | 39205 ft | 493 kts | 183° |
| 2026-05-06 18:35 | 9.67201 | 38.78528 | 39242 ft | 494 kts | 182° |
| 2026-05-06 18:36 | 9.60327 | 38.78342 | 39240 ft | 495 kts | 183° |
| 2026-05-06 18:36 | 9.53485 | 38.78156 | 39265 ft | 495 kts | 182° |
| 2026-05-06 18:37 | 9.47720 | 38.77999 | 39262 ft | 495 kts | 182° |
| 2026-05-06 18:37 | 9.39718 | 38.77782 | 39285 ft | 495 kts | 182° |
| 2026-05-06 18:38 | 9.32832 | 38.77595 | 39282 ft | 495 kts | 182° |
| 2026-05-06 18:38 | 9.25941 | 38.77408 | 39296 ft | 495 kts | 182° |
| 2026-05-06 18:39 | 9.19063 | 38.77221 | 39298 ft | 494 kts | 182° |
| 2026-05-06 18:40 | 9.08786 | 38.76451 | 39293 ft | 493 kts | 192° |
| 2026-05-06 18:40 | 9.02092 | 38.74906 | 39291 ft | 493 kts | 194° |
| 2026-05-06 18:41 | 8.95461 | 38.73229 | 39293 ft | 493 kts | 194° |
| 2026-05-06 18:41 | 8.88807 | 38.71533 | 39289 ft | 493 kts | 194° |
| 2026-05-06 18:42 | 8.82151 | 38.69855 | 39277 ft | 492 kts | 195° |
| 2026-05-06 18:42 | 8.75513 | 38.68191 | 39267 ft | 492 kts | 195° |
| 2026-05-06 18:43 | 8.68866 | 38.66527 | 39261 ft | 491 kts | 195° |
| 2026-05-06 18:43 | 8.63344 | 38.65145 | 39234 ft | 492 kts | 194° |
| 2026-05-06 18:44 | 8.56689 | 38.63480 | 39238 ft | 493 kts | 194° |
| 2026-05-06 18:44 | 8.48938 | 38.61541 | 39229 ft | 494 kts | 195° |
| 2026-05-06 18:45 | 8.43340 | 38.60140 | 39228 ft | 494 kts | 194° |
| 2026-05-06 18:45 | 8.36715 | 38.58484 | 39222 ft | 494 kts | 194° |
| 2026-05-06 18:46 | 8.30040 | 38.56816 | 39204 ft | 494 kts | 195° |
| 2026-05-06 18:46 | 8.23381 | 38.55153 | 39209 ft | 492 kts | 195° |
| 2026-05-06 18:47 | 8.16729 | 38.53494 | 39189 ft | 492 kts | 195° |
| 2026-05-06 18:47 | 8.10081 | 38.51840 | 39189 ft | 492 kts | 194° |
| 2026-05-06 18:48 | 8.03439 | 38.50183 | 39172 ft | 492 kts | 195° |
| 2026-05-06 18:48 | 7.96794 | 38.48526 | 39171 ft | 491 kts | 195° |
| 2026-05-06 18:49 | 7.90159 | 38.46875 | 39159 ft | 491 kts | 195° |
| 2026-05-06 18:49 | 7.83525 | 38.45224 | 39140 ft | 491 kts | 195° |
| 2026-05-06 18:50 | 7.76888 | 38.43573 | 39140 ft | 491 kts | 195° |
| 2026-05-06 18:50 | 7.70299 | 38.41934 | 39123 ft | 491 kts | 194° |
| 2026-05-06 18:51 | 7.63671 | 38.40286 | 39122 ft | 491 kts | 194° |
| 2026-05-06 18:51 | 7.57036 | 38.38637 | 39114 ft | 491 kts | 194° |
| 2026-05-06 18:52 | 7.50404 | 38.36990 | 39118 ft | 491 kts | 194° |
| 2026-05-06 18:52 | 7.43784 | 38.35308 | 39110 ft | 490 kts | 195° |
| 2026-05-06 18:53 | 7.37199 | 38.33500 | 39099 ft | 490 kts | 196° |
| 2026-05-06 18:53 | 7.30615 | 38.31678 | 39097 ft | 490 kts | 196° |
| 2026-05-06 18:54 | 7.24071 | 38.29887 | 39092 ft | 490 kts | 195° |
| 2026-05-06 18:54 | 7.17482 | 38.28097 | 39088 ft | 490 kts | 195° |
| 2026-05-06 18:55 | 7.10890 | 38.26309 | 39080 ft | 491 kts | 195° |
| 2026-05-06 18:55 | 7.04288 | 38.24518 | 39071 ft | 491 kts | 195° |
| 2026-05-06 18:56 | 6.97687 | 38.22728 | 39069 ft | 491 kts | 195° |
| 2026-05-06 18:56 | 6.91098 | 38.20941 | 39056 ft | 491 kts | 195° |
| 2026-05-06 18:57 | 6.84535 | 38.19162 | 39062 ft | 491 kts | 195° |
| 2026-05-06 18:57 | 6.77929 | 38.17371 | 39031 ft | 492 kts | 195° |
| 2026-05-06 18:58 | 6.71322 | 38.15581 | 39031 ft | 492 kts | 195° |
| 2026-05-06 18:58 | 6.64709 | 38.13790 | 39022 ft | 492 kts | 195° |
| 2026-05-06 18:59 | 6.58097 | 38.11999 | 39024 ft | 492 kts | 195° |
| 2026-05-06 18:59 | 6.51522 | 38.10221 | 39021 ft | 493 kts | 195° |
| 2026-05-06 19:00 | 6.44899 | 38.08421 | 39004 ft | 493 kts | 195° |
| 2026-05-06 19:00 | 6.38273 | 38.06608 | 39004 ft | 493 kts | 195° |
| 2026-05-06 19:01 | 6.31648 | 38.04799 | 39003 ft | 493 kts | 195° |
| 2026-05-06 19:01 | 6.25019 | 38.02992 | 39004 ft | 493 kts | 195° |
| 2026-05-06 19:02 | 6.18401 | 38.01189 | 39005 ft | 493 kts | 195° |
| 2026-05-06 19:02 | 6.11785 | 37.99387 | 38986 ft | 492 kts | 195° |
| 2026-05-06 19:03 | 6.05170 | 37.97586 | 38986 ft | 493 kts | 195° |
| 2026-05-06 19:03 | 5.98586 | 37.95794 | 38994 ft | 493 kts | 195° |
| 2026-05-06 19:04 | 5.91960 | 37.93991 | 38997 ft | 494 kts | 195° |
| 2026-05-06 19:04 | 5.85328 | 37.92187 | 38995 ft | 494 kts | 196° |
| 2026-05-06 19:05 | 5.78691 | 37.90382 | 38978 ft | 494 kts | 195° |
| 2026-05-06 19:05 | 5.72055 | 37.88577 | 38983 ft | 494 kts | 195° |
| 2026-05-06 19:06 | 5.65426 | 37.86775 | 38984 ft | 494 kts | 195° |
| 2026-05-06 19:06 | 5.58793 | 37.84972 | 38987 ft | 494 kts | 196° |
| 2026-05-06 19:07 | 5.52167 | 37.83172 | 38987 ft | 494 kts | 196° |
| 2026-05-06 19:07 | 5.45538 | 37.81371 | 38990 ft | 493 kts | 196° |
| 2026-05-06 19:08 | 5.38948 | 37.79581 | 38977 ft | 494 kts | 196° |
| 2026-05-06 19:08 | 5.32305 | 37.77777 | 38976 ft | 494 kts | 196° |
| 2026-05-06 19:09 | 5.25650 | 37.75970 | 38969 ft | 494 kts | 196° |
| 2026-05-06 19:09 | 5.19009 | 37.74168 | 38976 ft | 494 kts | 196° |
| 2026-05-06 19:10 | 5.12372 | 37.72367 | 38977 ft | 494 kts | 196° |
| 2026-05-06 19:10 | 5.05736 | 37.70566 | 38968 ft | 494 kts | 196° |
| 2026-05-06 19:11 | 4.99122 | 37.68772 | 38964 ft | 495 kts | 196° |
| 2026-05-06 19:11 | 4.92471 | 37.66968 | 38969 ft | 495 kts | 196° |
| 2026-05-06 19:12 | 4.85827 | 37.65167 | 38968 ft | 495 kts | 196° |
| 2026-05-06 19:12 | 4.79185 | 37.63366 | 38972 ft | 495 kts | 195° |
| 2026-05-06 19:13 | 4.72536 | 37.61564 | 38970 ft | 494 kts | 195° |
| 2026-05-06 19:13 | 4.65891 | 37.59764 | 38967 ft | 494 kts | 195° |
| 2026-05-06 19:14 | 4.59292 | 37.57976 | 38965 ft | 494 kts | 195° |
| 2026-05-06 19:14 | 4.52648 | 37.56176 | 38966 ft | 494 kts | 195° |
| 2026-05-06 19:15 | 4.46009 | 37.54378 | 38957 ft | 493 kts | 195° |
| 2026-05-06 19:15 | 4.39387 | 37.52585 | 38957 ft | 493 kts | 195° |
| 2026-05-06 19:16 | 4.32754 | 37.50789 | 38943 ft | 493 kts | 195° |
| 2026-05-06 19:16 | 4.26124 | 37.48995 | 38941 ft | 493 kts | 195° |
| 2026-05-06 19:17 | 4.19540 | 37.47213 | 38937 ft | 493 kts | 195° |
| 2026-05-06 19:17 | 4.12907 | 37.45418 | 38938 ft | 493 kts | 195° |
| 2026-05-06 19:18 | 4.06273 | 37.43624 | 38926 ft | 494 kts | 195° |
| 2026-05-06 19:18 | 3.99637 | 37.41829 | 38913 ft | 494 kts | 195° |
| 2026-05-06 19:19 | 3.93036 | 37.39915 | 38907 ft | 493 kts | 197° |
| 2026-05-06 19:19 | 3.86499 | 37.37958 | 38905 ft | 493 kts | 197° |
| 2026-05-06 19:20 | 3.79923 | 37.36006 | 38906 ft | 493 kts | 197° |
| 2026-05-06 19:20 | 3.73342 | 37.34059 | 38903 ft | 493 kts | 197° |
| 2026-05-06 19:21 | 3.66760 | 37.32114 | 38900 ft | 493 kts | 197° |
| 2026-05-06 19:21 | 3.60174 | 37.30169 | 38894 ft | 493 kts | 197° |
| 2026-05-06 19:22 | 3.53589 | 37.28224 | 38888 ft | 493 kts | 197° |
| 2026-05-06 19:22 | 3.47048 | 37.26292 | 38887 ft | 493 kts | 197° |
| 2026-05-06 19:23 | 3.40470 | 37.24350 | 38888 ft | 493 kts | 197° |
| 2026-05-06 19:23 | 3.33883 | 37.22406 | 38894 ft | 492 kts | 197° |
| 2026-05-06 19:24 | 3.27299 | 37.20463 | 38884 ft | 492 kts | 197° |
| 2026-05-06 19:24 | 3.20734 | 37.18526 | 38894 ft | 492 kts | 197° |
| 2026-05-06 19:25 | 3.14157 | 37.16585 | 38891 ft | 492 kts | 197° |
| 2026-05-06 19:25 | 3.07582 | 37.14645 | 38892 ft | 492 kts | 197° |
| 2026-05-06 19:26 | 3.01047 | 37.12717 | 38896 ft | 493 kts | 196° |
| 2026-05-06 19:26 | 2.94427 | 37.10765 | 38894 ft | 497 kts | 196° |
| 2026-05-06 19:27 | 2.87791 | 37.08808 | 38897 ft | 497 kts | 196° |
| 2026-05-06 19:27 | 2.81143 | 37.06847 | 38909 ft | 497 kts | 196° |
| 2026-05-06 19:28 | 2.74547 | 37.04903 | 38906 ft | 497 kts | 196° |
| 2026-05-06 19:28 | 2.67914 | 37.02947 | 38916 ft | 497 kts | 196° |
| 2026-05-06 19:29 | 2.61275 | 37.00990 | 38922 ft | 497 kts | 196° |
| 2026-05-06 19:29 | 2.54628 | 36.99032 | 38923 ft | 497 kts | 196° |
| 2026-05-06 19:30 | 2.48005 | 36.97080 | 38931 ft | 496 kts | 196° |
| 2026-05-06 19:30 | 2.41378 | 36.95127 | 38942 ft | 497 kts | 196° |
| 2026-05-06 19:31 | 2.34725 | 36.93166 | 38930 ft | 499 kts | 196° |
| 2026-05-06 19:31 | 2.24767 | 36.90233 | 38928 ft | 499 kts | 196° |
| 2026-05-06 19:32 | 2.18093 | 36.88267 | 38955 ft | 499 kts | 196° |
| 2026-05-06 19:32 | 2.11434 | 36.86305 | 38956 ft | 500 kts | 196° |
| 2026-05-06 19:33 | 2.04751 | 36.84337 | 38940 ft | 501 kts | 196° |
| 2026-05-06 19:33 | 1.98052 | 36.82364 | 38937 ft | 501 kts | 196° |
| 2026-05-06 19:34 | 1.91400 | 36.80405 | 38952 ft | 502 kts | 196° |
| 2026-05-06 19:34 | 1.84703 | 36.78433 | 38960 ft | 502 kts | 196° |
| 2026-05-06 19:35 | 1.77998 | 36.76460 | 38957 ft | 501 kts | 196° |
| 2026-05-06 19:35 | 1.71298 | 36.74487 | 38956 ft | 502 kts | 196° |
| 2026-05-06 19:36 | 1.64591 | 36.72513 | 38960 ft | 503 kts | 196° |
| 2026-05-06 19:36 | 1.59005 | 36.70869 | 38964 ft | 502 kts | 196° |
| 2026-05-06 19:37 | 1.51199 | 36.68571 | 38960 ft | 503 kts | 197° |
| 2026-05-06 19:37 | 1.45582 | 36.66918 | 38994 ft | 501 kts | 197° |
| 2026-05-06 19:38 | 1.38901 | 36.64952 | 38981 ft | 500 kts | 197° |
| 2026-05-06 19:38 | 1.32264 | 36.62998 | 38983 ft | 500 kts | 197° |
| 2026-05-06 19:39 | 1.25579 | 36.61031 | 38998 ft | 500 kts | 197° |
| 2026-05-06 19:39 | 1.18901 | 36.59066 | 39012 ft | 501 kts | 197° |
| 2026-05-06 19:40 | 1.12214 | 36.57099 | 39012 ft | 501 kts | 197° |
| 2026-05-06 19:40 | 1.05513 | 36.55127 | 39028 ft | 501 kts | 197° |
| 2026-05-06 19:41 | 0.98754 | 36.53400 | 39027 ft | 502 kts | 187° |
| 2026-05-06 19:41 | 0.91803 | 36.52851 | 39028 ft | 502 kts | 184° |
| 2026-05-06 19:42 | 0.84864 | 36.52396 | 39057 ft | 504 kts | 184° |
| 2026-05-06 19:42 | 0.77874 | 36.51926 | 39056 ft | 502 kts | 184° |
| 2026-05-06 19:43 | 0.70886 | 36.51451 | 39064 ft | 503 kts | 184° |
| 2026-05-06 19:43 | 0.63907 | 36.50976 | 39058 ft | 503 kts | 185° |
| 2026-05-06 19:44 | 0.56924 | 36.50500 | 39077 ft | 502 kts | 184° |
| 2026-05-06 19:44 | 0.49969 | 36.50026 | 39079 ft | 501 kts | 184° |
| 2026-05-06 19:45 | 0.42997 | 36.49550 | 39097 ft | 501 kts | 184° |
| 2026-05-06 19:45 | 0.36026 | 36.49074 | 39111 ft | 503 kts | 184° |
| 2026-05-06 19:46 | 0.29101 | 36.48602 | 39108 ft | 502 kts | 185° |
| 2026-05-06 19:46 | 0.22153 | 36.48129 | 39128 ft | 498 kts | 185° |
| 2026-05-06 19:47 | 0.15245 | 36.47658 | 39131 ft | 497 kts | 185° |
| 2026-05-06 19:47 | 0.08338 | 36.47186 | 39152 ft | 497 kts | 185° |
| 2026-05-06 19:48 | 0.01430 | 36.46715 | 39145 ft | 497 kts | 185° |
| 2026-05-06 19:48 | -0.05456 | 36.46245 | 39158 ft | 494 kts | 185° |
| 2026-05-06 19:49 | -0.12302 | 36.45778 | 39162 ft | 492 kts | 185° |
| 2026-05-06 19:49 | -0.15708 | 36.45546 | 38861 ft | 489 kts | 185° |
| 2026-05-06 19:49 | -0.19118 | 36.45313 | 38071 ft | 491 kts | 184° |
| 2026-05-06 19:50 | -0.22495 | 36.45083 | 37344 ft | 491 kts | 184° |
| 2026-05-06 19:50 | -0.25943 | 36.44848 | 36687 ft | 490 kts | 184° |
| 2026-05-06 19:50 | -0.29307 | 36.44618 | 36015 ft | 490 kts | 184° |
| 2026-05-06 19:50 | -0.32718 | 36.44385 | 35315 ft | 491 kts | 184° |
| 2026-05-06 19:51 | -0.36137 | 36.44152 | 34533 ft | 494 kts | 184° |
| 2026-05-06 19:51 | -0.39582 | 36.43917 | 33694 ft | 498 kts | 184° |
| 2026-05-06 19:51 | -0.43055 | 36.43680 | 32834 ft | 501 kts | 184° |
| 2026-05-06 19:51 | -0.46540 | 36.43443 | 31984 ft | 503 kts | 184° |
| 2026-05-06 19:52 | -0.50051 | 36.43203 | 31113 ft | 507 kts | 184° |
| 2026-05-06 19:52 | -0.53577 | 36.42963 | 30190 ft | 510 kts | 184° |
| 2026-05-06 19:52 | -0.57133 | 36.42720 | 29153 ft | 514 kts | 184° |
| 2026-05-06 19:52 | -0.60690 | 36.42477 | 28458 ft | 510 kts | 184° |
| 2026-05-06 19:53 | -0.64215 | 36.42237 | 27698 ft | 507 kts | 184° |
| 2026-05-06 19:53 | -0.67731 | 36.41997 | 26972 ft | 505 kts | 184° |
| 2026-05-06 19:53 | -0.71222 | 36.41759 | 26308 ft | 501 kts | 184° |
| 2026-05-06 19:53 | -0.74684 | 36.41523 | 25654 ft | 497 kts | 184° |
| 2026-05-06 19:54 | -0.78128 | 36.41288 | 25011 ft | 493 kts | 184° |
| 2026-05-06 19:54 | -0.81543 | 36.41055 | 24374 ft | 490 kts | 184° |
| 2026-05-06 19:54 | -0.84935 | 36.40824 | 23729 ft | 487 kts | 184° |
| 2026-05-06 19:54 | -0.88303 | 36.40594 | 23014 ft | 482 kts | 184° |
| 2026-05-06 19:55 | -0.91596 | 36.40369 | 22232 ft | 480 kts | 184° |
| 2026-05-06 19:55 | -0.94920 | 36.40142 | 21525 ft | 476 kts | 183° |
| 2026-05-06 19:55 | -0.98204 | 36.39918 | 20894 ft | 471 kts | 184° |
| 2026-05-06 19:55 | -1.01451 | 36.39696 | 20248 ft | 465 kts | 183° |
| 2026-05-06 19:56 | -1.04674 | 36.39476 | 19606 ft | 461 kts | 183° |
| 2026-05-06 19:56 | -1.07855 | 36.39259 | 18978 ft | 457 kts | 183° |
| 2026-05-06 19:56 | -1.11021 | 36.39043 | 18300 ft | 453 kts | 183° |
| 2026-05-06 19:56 | -1.13251 | 36.38891 | 17801 ft | 450 kts | 183° |
| 2026-05-06 19:57 | -1.16379 | 36.38678 | 17126 ft | 445 kts | 183° |
| 2026-05-06 19:57 | -1.19453 | 36.38468 | 16493 ft | 440 kts | 183° |
| 2026-05-06 19:57 | -1.22489 | 36.38261 | 15855 ft | 435 kts | 183° |
| 2026-05-06 19:57 | -1.25492 | 36.38057 | 15200 ft | 430 kts | 184° |
| 2026-05-06 19:58 | -1.28420 | 36.37858 | 14571 ft | 425 kts | 184° |
| 2026-05-06 19:58 | -1.31361 | 36.37889 | 13889 ft | 421 kts | 172° |
| 2026-05-06 19:58 | -1.34137 | 36.38759 | 13216 ft | 415 kts | 152° |
| 2026-05-06 19:58 | -1.36428 | 36.40446 | 12563 ft | 407 kts | 133° |
| 2026-05-06 19:59 | -1.38007 | 36.42748 | 11876 ft | 400 kts | 114° |
| 2026-05-06 19:59 | -1.38701 | 36.45375 | 11132 ft | 385 kts | 94° |
| 2026-05-06 19:59 | -1.38481 | 36.47959 | 10770 ft | 362 kts | 81° |
| 2026-05-06 19:59 | -1.38233 | 36.50388 | 10647 ft | 343 kts | 91° |
| 2026-05-06 20:00 | -1.38482 | 36.52698 | 10528 ft | 326 kts | 100° |
| 2026-05-06 20:00 | -1.38897 | 36.54875 | 10403 ft | 312 kts | 102° |
| 2026-05-06 20:00 | -1.39324 | 36.56948 | 10287 ft | 298 kts | 102° |
| 2026-05-06 20:00 | -1.39742 | 36.58935 | 10167 ft | 285 kts | 102° |
| 2026-05-06 20:01 | -1.40144 | 36.60819 | 10043 ft | 274 kts | 102° |
| 2026-05-06 20:01 | -1.40536 | 36.62656 | 9827 ft | 269 kts | 102° |
| 2026-05-06 20:01 | -1.40940 | 36.64532 | 9608 ft | 283 kts | 102° |
| 2026-05-06 20:01 | -1.41361 | 36.66485 | 9424 ft | 288 kts | 102° |
| 2026-05-06 20:02 | -1.41779 | 36.68432 | 9001 ft | 286 kts | 102° |
| 2026-05-06 20:02 | -1.42196 | 36.70376 | 8587 ft | 285 kts | 102° |
| 2026-05-06 20:02 | -1.42606 | 36.72281 | 8396 ft | 275 kts | 102° |
| 2026-05-06 20:02 | -1.42995 | 36.74088 | 8245 ft | 264 kts | 102° |
| 2026-05-06 20:03 | -1.43269 | 36.75862 | 8094 ft | 253 kts | 91° |
| 2026-05-06 20:03 | -1.42930 | 36.77545 | 7924 ft | 243 kts | 68° |
| 2026-05-06 20:03 | -1.42062 | 36.78941 | 7851 ft | 230 kts | 52° |
| 2026-05-06 20:03 | -1.41103 | 36.80133 | 7855 ft | 212 kts | 54° |
| 2026-05-06 20:04 | -1.40276 | 36.81285 | 7792 ft | 198 kts | 57° |
| 2026-05-06 20:04 | -1.39494 | 36.82388 | 7561 ft | 192 kts | 56° |
| 2026-05-06 20:04 | -1.38713 | 36.83459 | 7290 ft | 188 kts | 56° |
| 2026-05-06 20:04 | -1.37956 | 36.84497 | 7049 ft | 181 kts | 56° |
| 2026-05-06 20:05 | -1.37243 | 36.85478 | 6858 ft | 168 kts | 56° |
| 2026-05-06 20:05 | -1.36572 | 36.86401 | 6632 ft | 158 kts | 56° |
| 2026-05-06 20:05 | -1.35941 | 36.87273 | 6473 ft | 153 kts | 56° |
| 2026-05-06 20:05 | -1.35306 | 36.88132 | 6281 ft | 153 kts | 54° |
| 2026-05-06 20:06 | -1.34663 | 36.88984 | 6032 ft | 153 kts | 54° |
| 2026-05-06 20:06 | -1.34055 | 36.89839 | 5842 ft | 153 kts | 56° |
| 2026-05-06 20:06 | -1.33432 | 36.90713 | 5616 ft | 156 kts | 55° |
| 2026-05-06 20:06 | -1.32791 | 36.91591 | 5384 ft | 158 kts | 54° |
| 2026-05-06 20:07 | -1.32164 | 36.92449 | 5333 ft | 145 kts | 56° |
| 2026-05-06 20:07 | -1.31724 | 36.93050 | 5310 ft | 63 kts | 53° |
| 2026-05-06 20:07 | -1.31576 | 36.93255 | 5307 ft | 15 kts | 59° |
| 2026-05-06 20:07 | -1.31591 | 36.93343 | 5305 ft | 13 kts | 134° |
| 2026-05-06 20:08 | -1.31664 | 36.93399 | 5307 ft | 13 kts | 144° |
| 2026-05-06 20:08 | -1.31735 | 36.93451 | 5310 ft | 12 kts | 144° |
| 2026-05-06 20:08 | -1.31774 | 36.93478 | 5309 ft | 3 kts | 149° |
| 2026-05-06 20:08 | -1.31791 | 36.93482 | 5311 ft | 2 kts | 174° |
| 2026-05-06 20:09 | -1.31799 | 36.93480 | 5314 ft | 2 kts | 192° |
| 2026-05-06 20:09 | -1.31828 | 36.93459 | 5311 ft | 8 kts | 224° |
| 2026-05-06 20:09 | -1.31869 | 36.93412 | 5310 ft | 9 kts | 232° |
| 2026-05-06 20:09 | -1.31907 | 36.93360 | 5311 ft | 9 kts | 234° |
| 2026-05-06 20:10 | -1.31945 | 36.93307 | 5315 ft | 9 kts | 234° |
| 2026-05-06 20:10 | -1.31982 | 36.93257 | 5314 ft | 9 kts | 234° |
| 2026-05-06 20:10 | -1.32020 | 36.93205 | 5318 ft | 10 kts | 233° |
| 2026-05-06 20:10 | -1.32061 | 36.93148 | 5313 ft | 10 kts | 234° |
| 2026-05-06 20:11 | -1.32104 | 36.93089 | 5314 ft | 11 kts | 234° |
| 2026-05-06 20:11 | -1.32154 | 36.93022 | 5316 ft | 13 kts | 233° |
| 2026-05-06 20:11 | -1.32211 | 36.92943 | 5317 ft | 15 kts | 234° |
| 2026-05-06 20:11 | -1.32280 | 36.92849 | 5333 ft | 18 kts | 234° |
| 2026-05-06 20:12 | -1.32352 | 36.92750 | 5336 ft | 17 kts | 233° |
| 2026-05-06 20:12 | -1.32416 | 36.92663 | 5337 ft | 14 kts | 234° |
| 2026-05-06 20:12 | -1.32470 | 36.92590 | 5336 ft | 12 kts | 233° |
| 2026-05-06 20:12 | -1.32515 | 36.92528 | 5335 ft | 10 kts | 234° |
| 2026-05-06 20:13 | -1.32550 | 36.92481 | 5336 ft | 8 kts | 234° |
| 2026-05-06 20:13 | -1.32583 | 36.92436 | 5337 ft | 8 kts | 234° |
| 2026-05-06 20:13 | -1.32620 | 36.92385 | 5335 ft | 10 kts | 233° |
| 2026-05-06 20:13 | -1.32662 | 36.92328 | 5337 ft | 11 kts | 234° |
| 2026-05-06 20:14 | -1.32705 | 36.92268 | 5336 ft | 11 kts | 234° |
| 2026-05-06 20:14 | -1.32747 | 36.92213 | 5337 ft | 9 kts | 225° |
| 2026-05-06 20:14 | -1.32797 | 36.92209 | 5333 ft | 8 kts | 154° |
| 2026-05-06 20:14 | -1.32848 | 36.92243 | 5336 ft | 9 kts | 149° |
| 2026-05-06 20:15 | -1.32895 | 36.92262 | 5335 ft | 6 kts | 150° |
| 2026-05-06 20:15 | -1.32919 | 36.92287 | 5334 ft | 5 kts | 125° |
| 2026-05-06 20:15 | -1.32938 | 36.92317 | 5336 ft | 4 kts | 122° |
| 2026-05-06 20:15 | -1.32947 | 36.92332 | 5336 ft | 0 kts | 122° |
| 2026-05-06 20:16 | -1.32948 | 36.92334 | 5336 ft | 0 kts | 122° |
| 2026-05-06 20:16 | -1.32949 | 36.92335 | 5336 ft | 1 kts | 122° |
| 2026-05-06 20:16 | -1.32950 | 36.92336 | 5336 ft | 0 kts | 122° |